Terminal Aerodrome Forecast
Issued by NWS

Home | Current Version | Previous Version | Text Only | Print | Product List | Glossary On
Versions: 1 2 3 4 5 6 7 8 9 10 11 12
131
FTUS44 KEPZ 052350
TAFTCS
TAF
KTCS 052350Z 0600/0624 03012G20KT P6SM SKC
     FM060200 33007KT P6SM SKC
     FM061200 VRB04KT P6SM SKC
     FM062000 17005KT P6SM SKC=

USA.gov is the U.S. government's official web portal to all federal, state and local government web resources and services.